createdAt,value
2016-06-17T00:00:51.401Z,996.7
2016-06-17T00:01:51.420Z,996.69
2016-06-17T00:03:51.473Z,996.81
2016-06-17T00:04:51.493Z,996.83
2016-06-17T00:05:51.528Z,996.83
2016-06-17T00:06:51.547Z,996.8
2016-06-17T00:07:51.581Z,996.82
2016-06-17T00:08:51.600Z,996.81
2016-06-17T00:09:51.635Z,996.77
2016-06-17T00:10:51.654Z,996.73
2016-06-17T00:11:51.673Z,996.74
2016-06-17T00:12:51.708Z,996.71
2016-06-17T00:13:51.727Z,996.68
2016-06-17T00:14:51.761Z,996.65
2016-06-17T00:15:51.781Z,996.68
2016-06-17T00:16:51.816Z,996.68
2016-06-17T00:17:51.835Z,996.62
2016-06-17T00:19:51.888Z,996.66
2016-06-17T00:20:51.907Z,996.65
2016-06-17T00:21:51.942Z,996.64
2016-06-17T00:22:51.961Z,996.69
2016-06-17T00:23:51.981Z,996.66
2016-06-17T00:24:52.015Z,996.64
2016-06-17T00:25:52.034Z,996.65
2016-06-17T00:26:52.069Z,996.59
2016-06-17T00:27:52.088Z,996.62
2016-06-17T00:28:52.107Z,996.62
2016-06-17T00:29:52.141Z,996.66
2016-06-17T00:30:52.161Z,996.63
2016-06-17T00:31:52.195Z,996.62
2016-06-17T00:32:52.215Z,996.6
2016-06-17T00:34:52.269Z,996.64
2016-06-17T00:35:52.287Z,996.57
2016-06-17T00:36:52.322Z,996.57
2016-06-17T00:37:52.341Z,996.51
2016-06-17T00:38:52.376Z,996.48
2016-06-17T00:39:52.395Z,996.46
2016-06-17T00:40:52.414Z,996.45
2016-06-17T00:41:52.449Z,996.42
2016-06-17T00:42:52.468Z,996.37
2016-06-17T00:43:52.487Z,996.39
2016-06-17T00:44:52.521Z,996.38
2016-06-17T00:45:52.540Z,996.36
2016-06-17T00:46:52.575Z,996.39
2016-06-17T00:47:52.595Z,996.37
2016-06-17T00:48:52.629Z,996.39
2016-06-17T00:49:52.648Z,996.34
2016-06-17T00:50:52.666Z,996.34
2016-06-17T00:51:52.701Z,996.3
2016-06-17T00:52:52.719Z,996.27
2016-06-17T00:53:52.753Z,996.23
2016-06-17T00:54:52.772Z,996.19
2016-06-17T00:55:52.791Z,996.19
2016-06-17T00:56:52.825Z,996.17
2016-06-17T00:57:52.845Z,996.13
2016-06-17T00:58:52.879Z,996.1
2016-06-17T00:59:52.898Z,996.08
2016-06-17T01:00:52.917Z,996.02
2016-06-17T01:01:52.951Z,996.02
2016-06-17T01:02:52.987Z,996.03
2016-06-17T01:03:53.005Z,996
2016-06-17T01:04:53.024Z,995.99
2016-06-17T01:06:53.079Z,995.95
2016-06-17T01:07:53.097Z,995.93
2016-06-17T01:08:53.117Z,995.82
2016-06-17T01:09:53.151Z,995.82
2016-06-17T01:10:53.170Z,995.76
2016-06-17T01:11:53.205Z,995.69
2016-06-17T01:12:53.224Z,995.65
2016-06-17T01:13:53.258Z,995.64
2016-06-17T01:14:53.278Z,995.63
2016-06-17T01:15:53.297Z,995.61
2016-06-17T01:16:53.331Z,995.63
2016-06-17T01:17:53.350Z,995.6
2016-06-17T01:18:53.385Z,995.65
2016-06-17T01:19:53.404Z,995.68
2016-06-17T01:20:53.424Z,995.66
2016-06-17T01:22:53.476Z,995.63
2016-06-17T01:23:53.513Z,995.65
2016-06-17T01:24:53.530Z,995.63
2016-06-17T01:25:53.550Z,995.6
2016-06-17T01:26:53.585Z,995.57
2016-06-17T01:27:53.604Z,995.59
2016-06-17T01:28:53.638Z,995.62
2016-06-17T01:29:53.658Z,995.61
2016-06-17T01:30:53.676Z,995.58
2016-06-17T01:31:53.712Z,995.57
2016-06-17T01:32:53.731Z,995.55
2016-06-17T01:33:53.764Z,995.54
2016-06-17T01:34:53.784Z,995.57
2016-06-17T01:35:53.804Z,995.55
2016-06-17T01:36:53.839Z,995.54
2016-06-17T01:38:53.893Z,995.6
2016-06-17T01:39:53.910Z,995.58
2016-06-17T01:40:53.930Z,995.62
2016-06-17T01:41:53.965Z,995.61
2016-06-17T01:42:53.984Z,995.59
2016-06-17T01:43:54.004Z,995.63
2016-06-17T01:44:54.038Z,995.63
2016-06-17T01:45:54.056Z,995.64
2016-06-17T01:46:54.092Z,995.65
2016-06-17T01:47:54.111Z,995.73
2016-06-17T01:48:54.129Z,995.74
2016-06-17T01:49:54.164Z,995.72
2016-06-17T01:50:54.184Z,995.71
2016-06-17T01:51:54.218Z,995.74
2016-06-17T01:52:54.253Z,995.77
2016-06-17T01:54:54.291Z,995.83
2016-06-17T01:55:54.310Z,995.83
2016-06-17T01:56:54.347Z,995.85
2016-06-17T01:57:54.368Z,995.89
2016-06-17T01:58:54.403Z,995.9
2016-06-17T01:59:54.424Z,995.88
2016-06-17T02:00:54.445Z,995.87
2016-06-17T02:01:54.480Z,995.85
2016-06-17T02:02:54.499Z,995.82
2016-06-17T02:03:54.519Z,995.82
2016-06-17T02:04:54.553Z,995.81
2016-06-17T02:05:54.589Z,995.82
2016-06-17T02:06:54.608Z,995.8
2016-06-17T02:07:54.628Z,995.76
2016-06-17T02:09:54.682Z,995.77
2016-06-17T02:10:54.701Z,995.75
2016-06-17T02:11:54.737Z,995.76
2016-06-17T02:12:54.756Z,995.75
2016-06-17T02:13:54.774Z,995.72
2016-06-17T02:14:54.809Z,995.64
2016-06-17T02:15:54.828Z,995.63
2016-06-17T02:16:54.863Z,995.57
2016-06-17T02:17:54.883Z,995.52
2016-06-17T02:18:54.901Z,995.47
2016-06-17T02:19:54.935Z,995.39
2016-06-17T02:20:54.955Z,995.34
2016-06-17T02:21:54.975Z,995.36
2016-06-17T02:22:55.008Z,995.34
2016-06-17T02:23:55.028Z,995.28
2016-06-17T02:24:55.063Z,995.28
2016-06-17T02:25:55.081Z,995.25
2016-06-17T02:26:55.117Z,995.26
2016-06-17T02:27:55.152Z,995.25
2016-06-17T02:28:55.154Z,995.27
2016-06-17T02:29:55.189Z,995.22
2016-06-17T02:30:55.209Z,995.24
2016-06-17T02:31:55.227Z,995.23
2016-06-17T02:32:55.263Z,995.21
2016-06-17T02:33:55.280Z,995.21
2016-06-17T02:34:55.316Z,995.16
2016-06-17T02:35:55.335Z,995.21
2016-06-17T02:36:55.355Z,995.17
2016-06-17T02:37:55.388Z,995.2
2016-06-17T02:38:55.408Z,995.15
2016-06-17T02:39:55.427Z,995.13
2016-06-17T02:41:55.481Z,995.11
2016-06-17T02:42:55.500Z,995.07
2016-06-17T02:43:55.534Z,995.02
2016-06-17T02:44:55.554Z,994.94
2016-06-17T02:45:55.589Z,994.92
2016-06-17T02:46:55.608Z,994.88
2016-06-17T02:47:55.626Z,994.79
2016-06-17T02:48:55.646Z,994.82
2016-06-17T02:49:55.680Z,994.81
2016-06-17T02:50:55.700Z,994.83
2016-06-17T02:51:55.734Z,994.81
2016-06-17T02:52:55.753Z,994.83
2016-06-17T02:53:55.788Z,994.86
2016-06-17T02:54:55.807Z,994.9
2016-06-17T02:55:55.826Z,994.92
2016-06-17T02:57:55.880Z,994.98
2016-06-17T02:58:55.899Z,994.99
2016-06-17T02:59:55.934Z,994.99
2016-06-17T03:00:55.952Z,994.99
2016-06-17T03:01:55.972Z,995.01
2016-06-17T03:02:56.006Z,994.99
2016-06-17T03:03:56.026Z,995
2016-06-17T03:04:56.060Z,994.99
2016-06-17T03:05:56.080Z,994.98
2016-06-17T03:06:56.098Z,994.92
2016-06-17T03:07:56.133Z,994.92
2016-06-17T03:08:56.152Z,994.88
2016-06-17T03:09:56.171Z,994.89
2016-06-17T03:10:56.206Z,994.89
2016-06-17T03:11:56.225Z,994.9
2016-06-17T03:13:56.279Z,994.85
2016-06-17T03:14:56.298Z,994.86
2016-06-17T03:15:56.333Z,994.87
2016-06-17T03:16:56.368Z,994.92
2016-06-17T03:17:56.371Z,994.92
2016-06-17T03:18:56.405Z,994.95
2016-06-17T03:19:56.425Z,994.98
2016-06-17T03:20:56.459Z,995.04
2016-06-17T03:21:56.479Z,995
2016-06-17T03:22:56.498Z,995.02
2016-06-17T03:23:56.532Z,995.06
2016-06-17T03:24:56.551Z,995.06
2016-06-17T03:25:56.571Z,995.06
2016-06-17T03:26:56.605Z,995.1
2016-06-17T03:27:56.625Z,995.09
2016-06-17T03:29:56.678Z,995.12
2016-06-17T03:30:56.697Z,995.12
2016-06-17T03:31:56.731Z,995.06
2016-06-17T03:32:56.751Z,995.1
2016-06-17T03:33:56.770Z,995.12
2016-06-17T03:34:56.804Z,995.12
2016-06-17T03:35:56.824Z,995.08
2016-06-17T03:36:56.858Z,995.09
2016-06-17T03:37:56.877Z,995.06
2016-06-17T03:38:56.897Z,995.02
2016-06-17T03:39:56.932Z,994.95
2016-06-17T03:40:56.950Z,994.97
2016-06-17T03:41:56.969Z,994.94
2016-06-17T03:42:57.004Z,994.89
2016-06-17T03:44:57.059Z,994.84
2016-06-17T03:45:57.077Z,994.79
2016-06-17T03:46:57.097Z,994.81
2016-06-17T03:47:57.131Z,994.82
2016-06-17T03:48:57.151Z,994.79
2016-06-17T03:49:57.184Z,994.81
2016-06-17T03:50:57.204Z,994.84
2016-06-17T03:51:57.239Z,994.85
2016-06-17T03:52:57.257Z,994.88
2016-06-17T03:53:57.277Z,994.9
2016-06-17T03:54:57.296Z,994.92
2016-06-17T03:55:57.330Z,994.86
2016-06-17T03:56:57.350Z,994.87
2016-06-17T03:57:57.385Z,994.89
2016-06-17T03:58:57.403Z,994.89
2016-06-17T03:59:57.422Z,994.88
2016-06-17T04:00:57.457Z,994.84
2016-06-17T04:01:57.476Z,994.86
2016-06-17T04:02:57.496Z,994.83
2016-06-17T04:03:57.530Z,994.86
2016-06-17T04:04:57.548Z,994.9
2016-06-17T04:05:57.568Z,994.91
2016-06-17T04:06:57.603Z,994.92
2016-06-17T04:07:57.622Z,994.91
2016-06-17T04:08:57.672Z,994.95
2016-06-17T04:09:57.676Z,994.94
2016-06-17T04:10:57.694Z,994.93
2016-06-17T04:11:57.730Z,994.93
2016-06-17T04:12:57.751Z,994.96
2016-06-17T04:13:57.774Z,994.99
2016-06-17T04:14:57.812Z,994.99
2016-06-17T04:16:57.856Z,995.03
2016-06-17T04:17:57.894Z,995.07
2016-06-17T04:18:57.913Z,995.11
2016-06-17T04:19:57.950Z,995.13
2016-06-17T04:20:57.969Z,995.15
2016-06-17T04:21:58.005Z,995.16
2016-06-17T04:22:58.026Z,995.16
2016-06-17T04:23:58.045Z,995.18
2016-06-17T04:24:58.080Z,995.24
2016-06-17T04:25:58.100Z,995.2
2016-06-17T04:26:58.118Z,995.21
2016-06-17T04:27:58.153Z,995.2
2016-06-17T04:28:58.189Z,995.21
2016-06-17T04:29:58.193Z,995.2
2016-06-17T04:30:58.228Z,995.16
2016-06-17T04:32:58.283Z,995.13
2016-06-17T04:33:58.300Z,995.08
2016-06-17T04:34:58.320Z,995.06
2016-06-17T04:35:58.355Z,995.08
2016-06-17T04:36:58.375Z,995.07
2016-06-17T04:37:58.393Z,995.1
2016-06-17T04:38:58.428Z,995.14
2016-06-17T04:39:58.446Z,995.06
2016-06-17T04:40:58.466Z,995.13
2016-06-17T04:41:58.501Z,995.08
2016-06-17T04:42:58.519Z,995.01
2016-06-17T04:43:58.554Z,994.99
2016-06-17T04:44:58.573Z,994.93
2016-06-17T04:45:58.593Z,994.9
2016-06-17T04:46:58.628Z,994.88
2016-06-17T04:48:58.665Z,994.84
2016-06-17T04:49:58.700Z,994.77
2016-06-17T04:50:58.719Z,994.7
2016-06-17T04:51:58.738Z,994.65
2016-06-17T04:52:58.774Z,994.57
2016-06-17T04:53:58.792Z,994.59
2016-06-17T04:54:58.827Z,994.57
2016-06-17T04:55:58.846Z,994.52
2016-06-17T04:56:58.866Z,994.51
2016-06-17T04:57:58.900Z,994.54
2016-06-17T04:58:58.920Z,994.55
2016-06-17T04:59:58.937Z,994.52
2016-06-17T05:00:58.973Z,994.51
2016-06-17T05:01:58.992Z,994.55
2016-06-17T05:02:59.011Z,994.57
2016-06-17T05:04:59.065Z,994.61
2016-06-17T05:05:59.099Z,994.62
2016-06-17T05:06:59.119Z,994.63
2016-06-17T05:07:59.138Z,994.63
2016-06-17T05:08:59.172Z,994.61
2016-06-17T05:09:59.192Z,994.66
2016-06-17T05:10:59.210Z,994.68
2016-06-17T05:11:59.245Z,994.65
2016-06-17T05:12:59.265Z,994.66
2016-06-17T05:13:59.299Z,994.66
2016-06-17T05:14:59.318Z,994.68
2016-06-17T05:15:59.337Z,994.71
2016-06-17T05:16:59.371Z,994.7
2016-06-17T05:17:59.391Z,994.72
2016-06-17T05:19:59.445Z,994.72
2016-06-17T05:20:59.464Z,994.71
2016-06-17T05:21:59.498Z,994.74
2016-06-17T05:22:59.517Z,994.72
2016-06-17T05:23:59.536Z,994.74
2016-06-17T05:24:59.556Z,994.75
2016-06-17T05:25:59.841Z,994.75
2016-06-17T05:26:59.609Z,994.75
2016-06-17T05:27:59.645Z,994.76
2016-06-17T05:28:59.663Z,994.76
2016-06-17T05:29:59.683Z,994.8
2016-06-17T05:30:59.717Z,994.77
2016-06-17T05:31:59.737Z,994.78
2016-06-17T05:32:59.771Z,994.81
2016-06-17T05:33:59.790Z,994.78
2016-06-17T05:34:59.809Z,994.8
2016-06-17T05:35:59.844Z,994.74
2016-06-17T05:36:59.863Z,994.8
2016-06-17T05:37:59.882Z,994.8
2016-06-17T05:38:59.917Z,994.79
2016-06-17T05:39:59.936Z,994.76
2016-06-17T05:40:59.954Z,994.8
2016-06-17T05:41:59.990Z,994.81
2016-06-17T05:43:00.008Z,994.77
2016-06-17T05:44:00.028Z,994.77
2016-06-17T05:45:00.062Z,994.73
2016-06-17T05:46:00.082Z,994.76
2016-06-17T05:47:00.116Z,994.77
2016-06-17T05:48:00.136Z,994.74
2016-06-17T05:49:00.154Z,994.72
2016-06-17T05:50:00.189Z,994.7
2016-06-17T05:52:00.227Z,994.59
2016-06-17T05:53:00.262Z,994.59
2016-06-17T05:54:00.281Z,994.59
2016-06-17T05:55:00.316Z,994.58
2016-06-17T05:56:00.350Z,994.57
2016-06-17T05:57:00.354Z,994.6
2016-06-17T05:58:00.373Z,994.59
2016-06-17T05:59:00.407Z,994.54
2016-06-17T06:00:00.428Z,994.52
2016-06-17T06:01:00.445Z,994.43
2016-06-17T06:02:00.480Z,994.39
2016-06-17T06:03:00.500Z,994.32
2016-06-17T06:04:00.534Z,994.28
2016-06-17T06:05:00.553Z,994.27
2016-06-17T06:06:00.572Z,994.2
2016-06-17T06:08:00.626Z,994.17
2016-06-17T06:09:00.646Z,994.21
2016-06-17T06:10:00.679Z,994.17
2016-06-17T06:11:00.699Z,994.09
2016-06-17T06:12:00.733Z,994.12
2016-06-17T06:13:00.753Z,994.09
2016-06-17T06:14:00.772Z,994.02
2016-06-17T06:15:00.791Z,994.03
2016-06-17T06:16:00.825Z,994.09
2016-06-17T06:17:00.861Z,994.08
2016-06-17T06:18:00.879Z,994.14
2016-06-17T06:19:00.899Z,994.22
2016-06-17T06:20:00.934Z,994.23
2016-06-17T06:21:00.952Z,994.26
2016-06-17T06:22:00.972Z,994.29
2016-06-17T06:24:01.025Z,994.34
2016-06-17T06:25:01.045Z,994.32
2016-06-17T06:26:01.079Z,994.33
2016-06-17T06:27:01.099Z,994.33
2016-06-17T06:28:01.117Z,994.34
2016-06-17T06:29:01.137Z,994.39
2016-06-17T06:30:01.176Z,994.35
2016-06-17T06:31:01.201Z,994.35
2016-06-17T06:32:01.240Z,994.38
2016-06-17T06:33:01.265Z,994.32
2016-06-17T06:34:01.288Z,994.26
2016-06-17T06:35:01.325Z,994.27
2016-06-17T06:36:01.345Z,994.25
2016-06-17T06:37:01.381Z,994.26
2016-06-17T06:38:01.401Z,994.22
2016-06-17T06:40:01.458Z,994.18
2016-06-17T06:41:01.479Z,994.21
2016-06-17T06:42:01.497Z,994.14
2016-06-17T06:43:01.533Z,994.19
2016-06-17T06:44:01.553Z,994.18
2016-06-17T06:45:01.572Z,994.17
2016-06-17T06:46:01.607Z,994.2
2016-06-17T06:47:01.626Z,994.2
2016-06-17T06:48:01.661Z,994.23
2016-06-17T06:49:01.679Z,994.21
2016-06-17T06:50:01.698Z,994.22
2016-06-17T06:51:01.733Z,994.3
2016-06-17T06:52:01.752Z,994.3
2016-06-17T06:53:01.772Z,994.29
2016-06-17T06:55:01.825Z,994.33
2016-06-17T06:56:01.845Z,994.33
2016-06-17T06:57:01.878Z,994.32
2016-06-17T06:58:01.898Z,994.41
2016-06-17T06:59:01.918Z,994.28
2016-06-17T07:00:01.952Z,994.29
2016-06-17T07:01:01.971Z,994.34
2016-06-17T07:02:02.006Z,994.34
2016-06-17T07:03:02.024Z,994.32
2016-06-17T07:04:02.043Z,994.37
2016-06-17T07:05:02.078Z,994.36
2016-06-17T07:06:02.098Z,994.35
2016-06-17T07:07:02.117Z,994.38
2016-06-17T07:08:02.151Z,994.32
2016-06-17T07:09:02.170Z,994.33
2016-06-17T07:10:02.189Z,994.3
2016-06-17T07:11:02.224Z,994.37
2016-06-17T07:12:02.244Z,994.39
2016-06-17T07:13:02.278Z,994.35
2016-06-17T07:14:02.298Z,994.25
2016-06-17T07:15:02.316Z,994.4
2016-06-17T07:16:02.351Z,994.42
2016-06-17T07:17:02.386Z,994.47
2016-06-17T07:18:02.390Z,994.42
2016-06-17T07:19:02.423Z,994.43
2016-06-17T07:20:02.444Z,994.48
2016-06-17T07:21:02.461Z,994.45
2016-06-17T07:22:02.497Z,994.48
2016-06-17T07:23:02.516Z,994.52
2016-06-17T07:24:02.536Z,994.55
2016-06-17T07:25:02.570Z,994.58
2016-06-17T07:27:02.607Z,994.65
2016-06-17T07:28:02.643Z,994.54
2016-06-17T07:29:02.662Z,994.59
2016-06-17T07:30:02.695Z,994.63
2016-06-17T07:31:02.716Z,994.6
2016-06-17T07:32:02.749Z,994.64
2016-06-17T07:33:02.769Z,994.62
2016-06-17T07:34:02.789Z,994.64
2016-06-17T07:35:02.824Z,994.52
2016-06-17T07:36:02.842Z,994.53
2016-06-17T07:37:02.861Z,994.57
2016-06-17T07:38:02.895Z,994.61
2016-06-17T07:39:02.915Z,994.52
2016-06-17T07:40:02.934Z,994.51
2016-06-17T07:41:02.969Z,994.51
2016-06-17T07:43:03.006Z,994.55
2016-06-17T07:44:03.041Z,994.41
2016-06-17T07:45:03.061Z,994.52
2016-06-17T07:46:03.080Z,994.51
2016-06-17T07:47:03.115Z,994.52
2016-06-17T07:48:03.133Z,994.61
2016-06-17T07:49:03.169Z,994.58
2016-06-17T07:50:03.187Z,994.6
2016-06-17T07:51:03.206Z,994.62
2016-06-17T07:52:03.241Z,994.58
2016-06-17T07:53:03.261Z,994.6
2016-06-17T07:54:03.279Z,994.58
2016-06-17T07:55:03.314Z,994.58
2016-06-17T07:56:03.333Z,994.49
2016-06-17T07:57:03.352Z,994.55
2016-06-17T07:59:03.406Z,994.5
2016-06-17T08:00:03.425Z,994.47
2016-06-17T08:05:38.947Z,994.49
2016-06-17T08:06:38.966Z,994.5
2016-06-17T08:07:39.000Z,994.57
2016-06-17T08:08:39.020Z,994.49
2016-06-17T08:09:39.054Z,994.53
2016-06-17T08:10:39.073Z,994.58
2016-06-17T08:11:39.109Z,994.54
2016-06-17T08:12:39.126Z,994.55
2016-06-17T08:13:39.146Z,994.52
2016-06-17T08:14:39.164Z,994.61
2016-06-17T08:15:39.200Z,994.58
2016-06-17T08:16:39.218Z,994.54
2016-06-17T08:18:39.273Z,994.6
2016-06-17T08:19:39.292Z,994.55
2016-06-17T08:20:39.326Z,994.61
2016-06-17T08:21:39.346Z,994.66
2016-06-17T08:22:39.364Z,994.65
2016-06-17T08:23:39.400Z,994.67
2016-06-17T08:24:39.418Z,994.67
2016-06-17T08:25:39.438Z,994.68
2016-06-17T08:26:39.472Z,994.72
2016-06-17T08:27:39.492Z,994.68
2016-06-17T08:28:39.510Z,994.71
2016-06-17T08:29:39.546Z,994.69
2016-06-17T08:30:39.564Z,994.67
2016-06-17T08:31:39.584Z,994.74
2016-06-17T08:32:39.619Z,994.76
2016-06-17T08:34:39.669Z,994.79
2016-06-17T08:35:39.689Z,994.84
2016-06-17T08:36:39.706Z,994.85
2016-06-17T08:37:39.741Z,994.89
2016-06-17T08:38:39.761Z,994.88
2016-06-17T08:39:39.780Z,994.9
2016-06-17T08:40:39.815Z,994.91
2016-06-17T08:41:39.834Z,994.88
2016-06-17T08:42:39.852Z,994.92
2016-06-17T08:43:39.887Z,994.91
2016-06-17T08:44:21.047Z,994.9
2016-06-17T08:45:21.019Z,994.92
2016-06-17T08:46:21.038Z,994.98
2016-06-17T08:48:21.093Z,995
2016-06-17T08:49:21.128Z,995.03
2016-06-17T08:50:21.147Z,995.06
2016-06-17T08:51:21.166Z,995.03
2016-06-17T08:52:21.202Z,995.1
2016-06-17T08:53:21.221Z,995.16
2016-06-17T08:54:21.239Z,995.15
2016-06-17T08:55:21.274Z,995.14
2016-06-17T08:56:21.294Z,995.2
2016-06-17T08:57:21.312Z,995.27
2016-06-17T08:58:21.349Z,995.24
2016-06-17T08:59:21.366Z,995.27
2016-06-17T09:00:21.386Z,995.36
2016-06-17T09:01:21.420Z,995.32
2016-06-17T09:02:21.440Z,995.35
2016-06-17T09:04:21.494Z,995.36
2016-06-17T09:05:21.513Z,995.41
2016-06-17T09:06:21.548Z,995.37
2016-06-17T09:07:21.566Z,995.41
2016-06-17T09:08:21.586Z,995.45
2016-06-17T09:09:21.620Z,995.42
2016-06-17T09:16:21.767Z,995.53
2016-06-17T09:17:21.802Z,995.54
2016-06-17T09:24:18.957Z,995.54
2016-06-17T09:26:19.011Z,995.5
2016-06-17T09:27:19.030Z,995.48
2016-06-17T09:28:19.064Z,995.56
2016-06-17T09:29:19.084Z,995.57
2016-06-17T09:30:19.103Z,995.56
2016-06-17T09:31:19.137Z,995.58
2016-06-17T09:32:19.157Z,995.62
2016-06-17T09:33:19.176Z,995.61
2016-06-17T09:34:19.210Z,995.62
2016-06-17T09:35:19.230Z,995.59
2016-06-17T09:36:19.249Z,995.7
2016-06-17T09:37:19.283Z,995.67
2016-06-17T09:38:19.303Z,995.67
2016-06-17T09:39:19.322Z,995.64
2016-06-17T09:40:19.356Z,995.68
2016-06-17T09:42:19.397Z,995.71
2016-06-17T09:43:19.433Z,995.69
2016-06-17T09:44:19.454Z,995.76
2016-06-17T09:45:19.474Z,995.7
2016-06-17T09:46:19.509Z,995.73
2016-06-17T09:47:19.529Z,995.81
2016-06-17T09:48:19.548Z,995.81
2016-06-17T09:49:19.584Z,995.78
2016-06-17T09:50:19.603Z,995.82
2016-06-17T09:51:19.638Z,995.84
2016-06-17T09:52:19.656Z,995.85
2016-06-17T09:53:19.676Z,995.91
2016-06-17T09:54:19.710Z,995.87
2016-06-17T09:55:19.730Z,995.94
2016-06-17T09:57:19.783Z,995.96
2016-06-17T09:58:19.821Z,995.92
2016-06-17T09:59:19.827Z,995.96
2016-06-17T10:00:19.863Z,995.98
2016-06-17T10:01:19.886Z,995.97
2016-06-17T10:02:19.907Z,996.05
2016-06-17T10:03:19.943Z,996.03
2016-06-17T10:04:19.963Z,996.07
2016-06-17T10:05:19.983Z,996.15
2016-06-17T10:06:20.018Z,996.08
2016-06-17T10:07:20.038Z,996.11
2016-06-17T10:08:20.057Z,996.13
2016-06-17T10:09:20.093Z,996.16
2016-06-17T10:10:20.112Z,996.18
2016-06-17T10:11:20.148Z,996.19
2016-06-17T10:12:20.166Z,996.29
2016-06-17T10:13:20.186Z,996.19
2016-06-17T10:14:20.220Z,996.24
2016-06-17T10:15:20.241Z,996.28
2016-06-17T10:16:20.260Z,996.27
2016-06-17T10:17:20.296Z,996.32
2016-06-17T10:18:20.315Z,996.34
2016-06-17T10:19:20.335Z,996.38
2016-06-17T10:20:20.370Z,996.38
2016-06-17T10:21:20.390Z,996.34
2016-06-17T10:22:20.409Z,996.41
2016-06-17T10:23:20.445Z,996.43
2016-06-17T10:24:20.464Z,996.44
2016-06-17T10:25:20.499Z,996.48
2016-06-17T10:26:20.517Z,996.43
2016-06-17T10:27:20.537Z,996.52
2016-06-17T10:29:20.588Z,996.51
2016-06-17T10:30:20.606Z,996.54
2016-06-17T10:31:20.641Z,996.55
2016-06-17T10:32:20.660Z,996.6
2016-06-17T10:33:20.679Z,996.58
2016-06-17T10:34:20.713Z,996.6
2016-06-17T10:35:20.733Z,996.64
2016-06-17T10:36:20.752Z,996.66
2016-06-17T10:37:20.787Z,996.68
2016-06-17T10:38:20.806Z,996.72
2016-06-17T10:39:20.840Z,996.69
2016-06-17T10:40:20.860Z,996.71
2016-06-17T10:41:20.879Z,996.75
2016-06-17T10:42:20.897Z,996.69
2016-06-17T10:43:20.933Z,996.76
2016-06-17T10:45:20.971Z,996.78
2016-06-17T10:46:21.005Z,996.82
2016-06-17T10:47:21.025Z,996.8
2016-06-17T10:48:21.059Z,996.81
2016-06-17T10:49:21.078Z,996.85
2016-06-17T10:50:21.098Z,996.83
2016-06-17T10:51:21.133Z,996.89
2016-06-17T10:52:21.153Z,996.9
2016-06-17T10:53:21.188Z,996.92
2016-06-17T10:54:21.208Z,996.92
2016-06-17T10:55:21.229Z,996.93
2016-06-17T10:56:21.263Z,996.97
2016-06-17T10:57:21.281Z,996.97
2016-06-17T10:58:21.300Z,996.95
2016-06-17T10:59:21.319Z,997
2016-06-17T11:01:21.374Z,997.01
2016-06-17T11:02:21.392Z,997.06
2016-06-17T11:03:21.427Z,997.05
2016-06-17T11:04:21.446Z,997.1
2016-06-17T11:05:21.465Z,997.13
2016-06-17T11:06:21.501Z,997.11
2016-06-17T11:07:21.519Z,997.16
2016-06-17T11:08:21.551Z,997.2
2016-06-17T11:09:21.569Z,997.18
2016-06-17T11:10:21.587Z,997.17
2016-06-17T11:11:21.606Z,997.23
2016-06-17T11:12:21.640Z,997.28
2016-06-17T11:13:21.659Z,997.27
2016-06-17T11:14:21.693Z,997.28
2016-06-17T11:15:21.711Z,997.25
2016-06-17T11:17:21.764Z,997.37
2016-06-17T11:18:21.784Z,997.32
2016-06-17T11:19:21.803Z,997.33
2016-06-17T11:20:21.838Z,997.34
2016-06-17T11:21:21.857Z,997.37
2016-06-17T11:22:21.875Z,997.41
2016-06-17T11:23:21.910Z,997.38
2016-06-17T11:24:21.930Z,997.39
2016-06-17T11:25:21.964Z,997.45
2016-06-17T11:26:21.984Z,997.44
2016-06-17T11:27:22.002Z,997.48
2016-06-17T11:28:22.037Z,997.54
2016-06-17T11:29:22.056Z,997.5
2016-06-17T11:30:22.075Z,997.54
2016-06-17T11:32:22.129Z,997.59
2016-06-17T11:33:22.163Z,997.59
2016-06-17T11:34:22.184Z,997.6
2016-06-17T11:35:22.202Z,997.58
2016-06-17T11:36:22.237Z,997.6
2016-06-17T11:37:22.256Z,997.65
2016-06-17T11:38:22.275Z,997.64
2016-06-17T11:39:22.310Z,997.63
2016-06-17T11:40:22.330Z,997.65
2016-06-17T11:41:22.363Z,997.68
2016-06-17T11:42:22.383Z,997.69
2016-06-17T11:43:22.400Z,997.68
2016-06-17T11:44:22.434Z,997.73
2016-06-17T11:45:22.454Z,997.71
2016-06-17T11:46:22.473Z,997.76
2016-06-17T11:47:22.507Z,997.77
2016-06-17T11:48:22.525Z,997.76
2016-06-17T11:49:22.560Z,997.78
2016-06-17T11:50:22.578Z,997.82
2016-06-17T11:51:22.597Z,997.79
2016-06-17T11:52:22.632Z,997.8
2016-06-17T11:53:22.651Z,997.85
2016-06-17T11:54:22.670Z,997.82
2016-06-17T11:55:22.705Z,997.87
2016-06-17T11:56:22.740Z,997.88
2016-06-17T11:57:22.743Z,997.89
2016-06-17T11:58:22.778Z,997.91
2016-06-17T11:59:22.797Z,997.9
2016-06-17T12:00:22.831Z,997.94
2016-06-17T12:01:22.851Z,997.92
2016-06-17T12:02:22.869Z,997.96
2016-06-17T12:04:22.924Z,997.96
2016-06-17T12:05:22.943Z,998.03
2016-06-17T12:06:22.977Z,997.99
2016-06-17T12:07:22.997Z,997.99
2016-06-17T12:08:23.031Z,998
2016-06-17T12:09:23.051Z,998.01
2016-06-17T12:10:23.069Z,998.01
2016-06-17T12:11:23.105Z,998.04
2016-06-17T12:12:23.123Z,998.07
2016-06-17T12:13:23.142Z,998.05
2016-06-17T12:14:23.177Z,998.06
2016-06-17T12:15:23.197Z,998.07
2016-06-17T12:16:23.219Z,998.07
2016-06-17T12:17:23.257Z,998.15
2016-06-17T12:18:23.278Z,998.14
2016-06-17T12:20:23.336Z,998.15
2016-06-17T12:21:23.358Z,998.15
2016-06-17T12:22:23.393Z,998.19
2016-06-17T12:23:23.414Z,998.23
2016-06-17T12:24:23.433Z,998.19
2016-06-17T12:25:23.468Z,998.21
2016-06-17T12:26:23.488Z,998.2
2016-06-17T12:27:23.523Z,998.26
2016-06-17T12:28:23.543Z,998.24
2016-06-17T12:29:23.563Z,998.27
2016-06-17T12:30:23.598Z,998.33
2016-06-17T12:31:23.616Z,998.29
2016-06-17T12:32:23.636Z,998.29
2016-06-17T12:33:23.669Z,998.33
2016-06-17T12:34:23.689Z,998.39
2016-06-17T12:36:23.743Z,998.37
2016-06-17T12:37:23.762Z,998.44
2016-06-17T12:38:23.797Z,998.43
2016-06-17T12:39:23.815Z,998.4
2016-06-17T12:40:23.851Z,998.4
2016-06-17T12:41:23.870Z,998.44
2016-06-17T12:42:23.904Z,998.41
2016-06-17T12:43:23.923Z,998.44
2016-06-17T12:44:23.943Z,998.43
2016-06-17T12:45:23.977Z,998.45
2016-06-17T12:46:23.997Z,998.43
2016-06-17T12:47:24.015Z,998.45
2016-06-17T12:48:24.065Z,998.48
2016-06-17T12:49:24.069Z,998.5
2016-06-17T12:50:24.104Z,998.5
2016-06-17T12:52:24.158Z,998.56
2016-06-17T12:53:24.177Z,998.56
2016-06-17T12:54:24.196Z,998.57
2016-06-17T12:55:24.231Z,998.62
2016-06-17T12:56:24.249Z,998.58
2016-06-17T12:57:24.269Z,998.63
2016-06-17T12:58:24.303Z,998.67
2016-06-17T12:59:24.338Z,998.66
2016-06-17T13:00:24.357Z,998.65
2016-06-17T13:01:24.376Z,998.66
2016-06-17T13:02:24.411Z,998.67
2016-06-17T13:03:24.431Z,998.67
2016-06-17T13:04:24.449Z,998.67
2016-06-17T13:05:24.484Z,998.71
2016-06-17T13:07:24.537Z,998.67
2016-06-17T13:08:24.556Z,998.73
2016-06-17T13:09:24.591Z,998.7
2016-06-17T13:10:24.611Z,998.71
2016-06-17T13:11:24.629Z,998.7
2016-06-17T13:12:24.665Z,998.78
2016-06-17T13:13:24.683Z,998.78
2016-06-17T13:14:24.750Z,998.75
2016-06-17T13:15:24.737Z,998.78
2016-06-17T13:16:24.771Z,998.79
2016-06-17T13:17:24.791Z,998.83
2016-06-17T13:18:24.810Z,998.8
2016-06-17T13:19:24.845Z,998.85
2016-06-17T13:20:24.864Z,998.83
2016-06-17T13:21:24.899Z,998.81
2016-06-17T13:22:24.918Z,998.85
2016-06-17T13:23:24.937Z,998.92
2016-06-17T13:24:24.971Z,998.93
2016-06-17T13:25:24.991Z,998.97
2016-06-17T13:26:25.025Z,998.95
2016-06-17T13:27:25.045Z,998.96
2016-06-17T13:28:25.063Z,998.94
2016-06-17T13:29:25.099Z,999
2016-06-17T13:30:25.116Z,999
2016-06-17T13:31:25.153Z,999.05